createdAt,value
2022-11-14T00:01:32.721Z,101133.41
2022-11-14T00:04:19.346Z,101129.13
2022-11-14T00:07:05.319Z,101122.97
2022-11-14T00:09:51.540Z,101125.66
2022-11-14T00:12:37.677Z,101124.41
2022-11-14T00:15:24.018Z,101126.00
2022-11-14T00:18:09.761Z,101134.53
2022-11-14T00:20:56.103Z,101130.59
2022-11-14T00:23:41.753Z,101130.91
2022-11-14T00:26:28.235Z,101126.63
2022-11-14T00:29:15.848Z,101122.84
2022-11-14T00:32:01.901Z,101131.38
2022-11-14T00:34:48.670Z,101127.59
2022-11-14T00:37:35.717Z,101123.75
2022-11-14T00:40:21.454Z,101124.91
2022-11-14T00:43:07.699Z,101117.47
2022-11-14T00:45:53.662Z,101124.59
2022-11-14T00:48:40.230Z,101123.69
2022-11-14T00:51:26.046Z,101127.66
2022-11-14T00:54:12.758Z,101132.75
2022-11-14T00:56:58.699Z,101130.56
2022-11-14T00:59:44.798Z,101129.66
2022-11-14T01:02:31.160Z,101134.25
2022-11-14T01:05:17.680Z,101135.69
2022-11-14T01:08:03.485Z,101129.56
2022-11-14T01:10:51.331Z,101130.66
2022-11-14T01:13:37.809Z,101126.06
2022-11-14T01:16:24.180Z,101124.19
2022-11-14T01:19:10.051Z,101118.81
2022-11-14T01:21:56.235Z,101111.53
2022-11-14T01:24:42.225Z,101112.16
2022-11-14T01:27:31.995Z,101101.13
2022-11-14T01:30:18.338Z,101100.84
2022-11-14T01:33:06.111Z,101099.44
2022-11-14T01:35:52.259Z,101094.84
2022-11-14T01:38:38.572Z,101089.47
2022-11-14T01:41:25.573Z,101088.06
2022-11-14T01:44:45.812Z,101083.47
2022-11-14T01:47:33.685Z,101082.38
2022-11-14T01:50:19.941Z,101076.69
2022-11-14T01:53:06.220Z,101073.31
2022-11-14T01:55:55.383Z,101069.84
2022-11-14T01:58:50.585Z,101070.63
2022-11-14T02:01:45.184Z,101068.91
2022-11-14T02:04:41.196Z,101062.25
2022-11-14T02:07:31.189Z,101064.16
2022-11-14T02:10:21.224Z,101070.00
2022-11-14T02:13:08.551Z,101063.22
2022-11-14T02:15:54.751Z,101064.00
2022-11-14T02:18:40.942Z,101060.19
2022-11-14T02:21:27.210Z,101058.75
2022-11-14T02:24:14.354Z,101054.81
2022-11-14T02:27:00.043Z,101060.97
2022-11-14T02:29:46.274Z,101060.97
2022-11-14T02:32:45.018Z,101060.53
2022-11-14T02:35:38.732Z,101054.34
2022-11-14T02:38:24.806Z,101062.56
2022-11-14T02:41:11.092Z,101072.41
2022-11-14T02:43:57.051Z,101077.19
2022-11-14T02:46:43.500Z,101081.44
2022-11-14T02:49:29.524Z,101072.00
2022-11-14T02:52:15.526Z,101072.00
2022-11-14T02:55:02.078Z,101059.69
2022-11-14T02:57:48.114Z,101059.88
2022-11-14T03:00:36.722Z,101067.63
2022-11-14T03:03:27.268Z,101069.50
2022-11-14T03:06:13.745Z,101070.78
2022-11-14T03:09:00.144Z,101070.78
2022-11-14T03:11:45.849Z,101064.97
2022-11-14T03:14:32.301Z,101058.63
2022-11-14T03:17:18.465Z,101060.41
2022-11-14T03:20:06.077Z,101063.09
2022-11-14T03:22:52.170Z,101067.19
2022-11-14T03:25:38.487Z,101056.00
2022-11-14T03:28:24.273Z,101048.56
2022-11-14T03:31:12.630Z,101044.50
2022-11-14T03:33:58.816Z,101040.22
2022-11-14T03:36:45.439Z,101048.91
2022-11-14T03:39:31.236Z,101053.97
2022-11-14T03:42:17.216Z,101044.16
2022-11-14T03:45:03.869Z,101055.88
2022-11-14T03:47:49.940Z,101061.38
2022-11-14T03:50:36.205Z,101059.31
2022-11-14T03:53:22.967Z,101063.09
2022-11-14T03:56:08.916Z,101063.56
2022-11-14T03:58:55.029Z,101058.22
2022-11-14T04:01:41.048Z,101048.91
2022-11-14T04:04:27.274Z,101047.16
2022-11-14T04:07:13.305Z,101056.16
2022-11-14T04:09:59.723Z,101058.53
2022-11-14T04:12:54.161Z,101061.19
2022-11-14T04:15:40.508Z,101054.91
2022-11-14T04:18:27.406Z,101052.69
2022-11-14T04:21:14.210Z,101059.44
2022-11-14T04:24:00.284Z,101056.91
2022-11-14T04:26:46.397Z,101052.81
2022-11-14T04:29:32.150Z,101055.66
2022-11-14T04:32:18.398Z,101050.13
2022-11-14T04:35:04.778Z,101049.97
2022-11-14T04:37:51.075Z,101054.38
2022-11-14T04:40:36.993Z,101049.00
2022-11-14T04:43:23.249Z,101041.13
2022-11-14T04:46:09.157Z,101043.63
2022-11-14T04:48:55.327Z,101040.47
2022-11-14T04:51:41.373Z,101035.44
2022-11-14T04:54:27.575Z,101037.03
2022-11-14T04:57:14.735Z,101045.66
2022-11-14T05:00:00.997Z,101051.16
2022-11-14T05:02:46.976Z,101040.28
2022-11-14T05:05:35.959Z,101045.66
2022-11-14T05:08:25.278Z,101044.19
2022-11-14T05:11:16.509Z,101052.06
2022-11-14T05:14:03.397Z,101048.78
2022-11-14T05:16:49.727Z,101057.13
2022-11-14T05:19:35.660Z,101064.97
2022-11-14T05:22:22.153Z,101064.47
2022-11-14T05:25:08.854Z,101070.13
2022-11-14T05:27:55.680Z,101066.78
2022-11-14T05:30:41.586Z,101066.31
2022-11-14T05:33:27.690Z,101058.28
2022-11-14T05:36:16.926Z,101065.06
2022-11-14T05:39:03.562Z,101055.75
2022-11-14T05:41:49.657Z,101048.00
2022-11-14T05:44:35.910Z,101056.03
2022-11-14T05:47:21.817Z,101057.16
2022-11-14T05:50:08.507Z,101059.03
2022-11-14T05:52:54.146Z,101068.66
2022-11-14T05:55:40.063Z,101065.97
2022-11-14T05:58:26.240Z,101066.75
2022-11-14T06:01:17.188Z,101074.47
2022-11-14T06:04:06.762Z,101067.06
2022-11-14T06:06:53.157Z,101076.38
2022-11-14T06:09:39.355Z,101069.31
2022-11-14T06:12:25.989Z,101078.56
2022-11-14T06:15:12.000Z,101077.84
2022-11-14T06:17:58.443Z,101078.16
2022-11-14T06:20:44.663Z,101082.28
2022-11-14T06:23:30.986Z,101087.03
2022-11-14T06:26:25.665Z,101089.38
2022-11-14T06:29:11.839Z,101094.25
2022-11-14T06:31:57.972Z,101097.09
2022-11-14T06:34:44.214Z,101100.09
2022-11-14T06:37:33.543Z,101106.88
2022-11-14T06:40:20.721Z,101102.47
2022-11-14T06:43:07.062Z,101100.44
2022-11-14T06:45:56.765Z,101103.59
2022-11-14T06:48:43.979Z,101112.56
2022-11-14T06:51:30.439Z,101104.53
2022-11-14T06:54:16.163Z,101102.81
2022-11-14T06:57:02.319Z,101098.72
2022-11-14T06:59:48.493Z,101096.66
2022-11-14T07:02:34.579Z,101097.03
2022-11-14T07:05:20.326Z,101088.66
2022-11-14T07:08:06.715Z,101087.69
2022-11-14T07:10:53.233Z,101079.03
2022-11-14T07:13:39.687Z,101081.56
2022-11-14T07:16:37.619Z,101082.53
2022-11-14T07:19:23.882Z,101076.50
2022-11-14T07:22:10.386Z,101073.66
2022-11-14T07:24:56.562Z,101076.66
2022-11-14T07:27:42.444Z,101083.00
2022-11-14T07:30:28.593Z,101083.13
2022-11-14T07:33:14.657Z,101082.66
2022-11-14T07:36:01.295Z,101076.34
2022-11-14T07:38:47.694Z,101072.69
2022-11-14T07:41:34.164Z,101075.53
2022-11-14T07:44:20.018Z,101075.69
2022-11-14T07:47:06.230Z,101065.75
2022-11-14T07:49:52.297Z,101072.84
2022-11-14T07:52:38.752Z,101077.72
2022-11-14T07:55:24.718Z,101071.09
2022-11-14T07:58:11.486Z,101065.88
2022-11-14T08:01:02.235Z,101065.56
2022-11-14T08:03:48.859Z,101066.34
2022-11-14T08:06:35.219Z,101064.47
2022-11-14T08:09:23.145Z,101062.25
2022-11-14T08:12:08.975Z,101070.78
2022-11-14T08:14:55.478Z,101075.97
2022-11-14T08:17:41.605Z,101074.38
2022-11-14T08:20:28.529Z,101077.25
2022-11-14T08:23:15.113Z,101073.56
2022-11-14T08:26:01.881Z,101070.72
2022-11-14T08:28:47.874Z,101077.34
2022-11-14T08:31:34.256Z,101077.97
2022-11-14T08:34:22.475Z,101080.91
2022-11-14T08:37:08.755Z,101076.00
2022-11-14T08:39:54.878Z,101069.84
2022-11-14T08:42:41.400Z,101072.03
2022-11-14T08:45:27.539Z,101073.44
2022-11-14T08:48:14.275Z,101070.59
2022-11-14T08:51:06.187Z,101080.50
2022-11-14T08:53:53.088Z,101076.97
2022-11-14T08:56:39.294Z,101076.13
2022-11-14T08:59:25.426Z,101067.88
2022-11-14T09:02:16.234Z,101063.56
2022-11-14T09:05:02.658Z,101065.38
2022-11-14T09:07:48.877Z,101058.19
2022-11-14T09:10:37.369Z,101051.63
2022-11-14T09:13:23.689Z,101055.16
2022-11-14T09:16:10.142Z,101052.53
2022-11-14T09:18:56.505Z,101044.53
2022-11-14T09:21:43.169Z,101038.72
2022-11-14T09:24:30.008Z,101045.25
2022-11-14T09:27:17.238Z,101045.63
2022-11-14T09:30:06.016Z,101037.13
2022-11-14T09:32:52.856Z,101032.41
2022-11-14T09:35:39.093Z,101034.97
2022-11-14T09:38:26.552Z,101039.25
2022-11-14T09:41:33.881Z,101024.66
2022-11-14T09:44:47.724Z,101027.78
2022-11-14T09:47:42.860Z,101026.22
2022-11-14T09:50:37.417Z,101017.66
2022-11-14T09:53:52.944Z,101013.72
2022-11-14T09:56:39.427Z,101013.91
2022-11-14T09:59:26.634Z,101007.59
2022-11-14T10:03:03.328Z,101006.06
2022-11-14T10:06:08.628Z,101008.72
2022-11-14T10:09:06.789Z,101003.25
2022-11-14T10:12:36.450Z,101000.06
2022-11-14T10:15:52.269Z,100998.06
2022-11-14T10:19:30.854Z,100988.78
2022-11-14T10:22:58.621Z,100984.50
2022-11-14T10:26:19.927Z,100975.53
2022-11-14T10:29:27.586Z,100972.78
2022-11-14T10:32:22.370Z,100970.66
2022-11-14T10:35:28.745Z,100961.56
2022-11-14T10:39:07.306Z,100966.44
2022-11-14T10:42:03.185Z,100959.34
2022-11-14T10:45:10.619Z,100958.41
2022-11-14T10:48:15.995Z,100954.47
2022-11-14T10:51:34.866Z,100946.97
2022-11-14T10:55:10.138Z,100945.31
2022-11-14T10:57:58.017Z,100945.63
2022-11-14T11:00:44.633Z,100939.31
2022-11-14T11:03:59.255Z,100943.94
2022-11-14T11:06:46.066Z,100937.19
2022-11-14T11:09:51.493Z,100926.59
2022-11-14T11:12:37.919Z,100928.31
2022-11-14T11:15:32.283Z,100915.28
2022-11-14T11:18:33.618Z,100917.88
2022-11-14T11:21:23.420Z,100911.13
2022-11-14T11:24:10.172Z,100912.88
2022-11-14T11:27:29.222Z,100911.94
2022-11-14T11:30:23.281Z,100900.06
2022-11-14T11:33:22.412Z,100898.25
2022-11-14T11:36:19.545Z,100892.53
2022-11-14T11:39:05.617Z,100892.25
2022-11-14T11:42:11.055Z,100882.25
2022-11-14T11:45:04.157Z,100883.41
2022-11-14T11:48:19.778Z,100881.97
2022-11-14T11:51:14.145Z,100878.16
2022-11-14T11:54:24.760Z,100870.50
2022-11-14T11:57:21.403Z,100872.09
2022-11-14T12:00:21.174Z,100863.63
2022-11-14T12:03:14.387Z,100862.91
2022-11-14T12:06:24.863Z,100857.16
2022-11-14T12:09:22.218Z,100851.34
2022-11-14T12:12:35.630Z,100848.25
2022-11-14T12:16:24.665Z,100850.19
2022-11-14T12:19:41.353Z,100840.81
2022-11-14T12:22:46.734Z,100841.13
2022-11-14T12:26:17.719Z,100835.63
2022-11-14T12:29:12.857Z,100846.84
2022-11-14T12:32:06.869Z,100837.75
2022-11-14T12:34:53.547Z,100836.84
2022-11-14T12:37:50.042Z,100834.00
2022-11-14T12:40:48.387Z,100840.56
2022-11-14T12:43:45.100Z,100836.50
2022-11-14T12:47:05.853Z,100833.97
2022-11-14T12:49:55.831Z,100833.75
2022-11-14T12:52:42.922Z,100828.13
2022-11-14T12:55:29.509Z,100822.06
2022-11-14T12:58:24.794Z,100823.09
2022-11-14T13:01:48.256Z,100821.25
2022-11-14T13:04:57.846Z,100819.50
2022-11-14T13:07:48.648Z,100812.22
2022-11-14T13:10:42.034Z,100807.72
2022-11-14T13:13:46.948Z,100811.69
2022-11-14T13:16:52.060Z,100808.25
2022-11-14T13:20:05.208Z,100811.13
2022-11-14T13:22:51.430Z,100809.38
2022-11-14T13:25:37.573Z,100805.31
2022-11-14T13:28:38.693Z,100804.06
2022-11-14T13:31:35.332Z,100798.84
2022-11-14T13:34:37.397Z,100788.53
2022-11-14T13:37:47.802Z,100786.75
2022-11-14T13:41:11.785Z,100791.16
2022-11-14T13:44:34.414Z,100790.41
2022-11-14T13:48:16.281Z,100786.47
2022-11-14T13:51:28.988Z,100779.47
2022-11-14T13:54:18.252Z,100784.97
2022-11-14T13:57:35.377Z,100781.75
2022-11-14T14:00:21.779Z,100782.25
2022-11-14T14:03:28.253Z,100773.13
2022-11-14T14:07:05.405Z,100772.06
2022-11-14T14:10:08.570Z,100774.44
2022-11-14T14:13:23.423Z,100769.78
2022-11-14T14:17:01.693Z,100763.69
2022-11-14T14:20:18.742Z,100767.63
2022-11-14T14:54:04.051Z,100747.44
2022-11-14T14:57:02.842Z,100746.06
2022-11-14T15:00:05.981Z,100740.06
2022-11-14T15:02:56.616Z,100742.59
2022-11-14T15:05:43.155Z,100742.72
2022-11-14T15:08:31.950Z,100743.31
2022-11-14T15:11:18.895Z,100730.38
2022-11-14T15:14:05.208Z,100733.25
2022-11-14T15:16:53.305Z,100740.06
2022-11-14T15:19:45.748Z,100735.69
2022-11-14T15:22:33.057Z,100731.69
2022-11-14T15:25:20.440Z,100733.09
2022-11-14T15:28:21.017Z,100736.78
2022-11-14T15:31:17.184Z,100734.28
2022-11-14T15:34:34.408Z,100733.31
2022-11-14T15:37:22.851Z,100726.16
2022-11-14T15:40:39.429Z,100734.50
2022-11-14T15:43:50.619Z,100732.72
2022-11-14T15:46:46.760Z,100737.59
2022-11-14T15:49:33.822Z,100730.84
2022-11-14T15:52:47.512Z,100729.13
2022-11-14T15:55:33.496Z,100722.41
2022-11-14T15:58:29.082Z,100721.47
2022-11-14T16:01:23.938Z,100725.59
2022-11-14T16:04:23.016Z,100720.81
2022-11-14T16:07:14.696Z,100721.84
2022-11-14T16:10:01.311Z,100723.72
2022-11-14T16:12:52.255Z,100716.25
2022-11-14T16:15:39.847Z,100731.22
2022-11-14T16:18:25.718Z,100721.56
2022-11-14T16:21:18.231Z,100728.78
2022-11-14T16:24:05.839Z,100718.25
2022-11-14T16:26:52.437Z,100728.50
2022-11-14T16:29:38.510Z,100725.63
2022-11-14T16:32:26.728Z,100716.22
2022-11-14T16:35:14.785Z,100711.09
2022-11-14T16:38:01.102Z,100709.97
2022-11-14T16:40:47.239Z,100719.97
2022-11-14T16:43:33.953Z,100714.22
2022-11-14T16:46:19.783Z,100718.50
2022-11-14T16:49:05.850Z,100713.97
2022-11-14T16:51:52.433Z,100715.25
2022-11-14T16:54:38.802Z,100708.03
2022-11-14T16:57:25.304Z,100715.41
2022-11-14T17:00:13.450Z,100710.09
2022-11-14T17:02:59.541Z,100717.41
2022-11-14T17:05:48.652Z,100721.75
2022-11-14T17:08:34.740Z,100714.88
2022-11-14T17:11:21.354Z,100701.66
2022-11-14T17:14:07.629Z,100703.50
2022-11-14T17:16:53.953Z,100702.69
2022-11-14T17:19:45.921Z,100697.66
2022-11-14T17:22:32.621Z,100700.63
2022-11-14T17:25:18.894Z,100699.00
2022-11-14T17:28:05.200Z,100698.91
2022-11-14T17:30:51.259Z,100693.34
2022-11-14T17:33:38.344Z,100704.75
2022-11-14T17:36:29.109Z,100701.53
2022-11-14T17:39:15.413Z,100699.53
2022-11-14T17:42:01.275Z,100697.53
2022-11-14T17:44:47.925Z,100698.25
2022-11-14T17:47:33.711Z,100692.41
2022-11-14T17:50:19.782Z,100700.06
2022-11-14T17:53:06.631Z,100686.84
2022-11-14T17:56:01.815Z,100692.59
2022-11-14T17:58:51.141Z,100684.44
2022-11-14T18:01:43.612Z,100677.75
2022-11-14T18:04:31.802Z,100676.25
2022-11-14T18:07:20.603Z,100663.00
2022-11-14T18:10:07.181Z,100666.69
2022-11-14T18:12:55.495Z,100663.63
2022-11-14T18:15:41.439Z,100654.31
2022-11-14T18:18:35.259Z,100660.94
2022-11-14T18:21:31.781Z,100663.63
2022-11-14T18:24:18.438Z,100656.22
2022-11-14T18:27:04.358Z,100658.09
2022-11-14T18:29:50.677Z,100660.25
2022-11-14T18:32:36.582Z,100664.28
2022-11-14T18:35:22.687Z,100662.09
2022-11-14T18:38:08.525Z,100655.56
2022-11-14T18:40:57.516Z,100658.25
2022-11-14T18:43:45.128Z,100656.59
2022-11-14T18:46:37.200Z,100647.63
2022-11-14T18:49:28.395Z,100643.22
2022-11-14T18:52:17.387Z,100643.81
2022-11-14T18:55:08.420Z,100630.00
2022-11-14T18:57:54.349Z,100651.56
2022-11-14T19:00:40.317Z,100649.22
2022-11-14T19:03:27.007Z,100645.22
2022-11-14T19:06:14.046Z,100646.16
2022-11-14T19:09:10.587Z,100647.53
2022-11-14T19:12:15.660Z,100649.03
2022-11-14T19:15:02.384Z,100650.94
2022-11-14T19:17:49.032Z,100640.75
2022-11-14T19:20:37.700Z,100641.34
2022-11-14T19:23:24.216Z,100641.28
2022-11-14T19:26:11.760Z,100640.75
2022-11-14T19:29:06.487Z,100640.16
2022-11-14T19:31:54.698Z,100636.91
2022-11-14T19:34:46.810Z,100638.38
2022-11-14T19:37:34.400Z,100636.13
2022-11-14T19:40:20.757Z,100629.25
2022-11-14T19:43:09.180Z,100628.03
2022-11-14T19:46:00.133Z,100624.38
2022-11-14T19:48:47.883Z,100629.56
2022-11-14T19:51:34.734Z,100622.19
2022-11-14T19:54:21.007Z,100624.78
2022-11-14T19:57:06.962Z,100630.75
2022-11-14T19:59:53.540Z,100628.78
2022-11-14T20:02:40.619Z,100619.47
2022-11-14T20:05:27.179Z,100622.59
2022-11-14T20:08:13.229Z,100615.19
2022-11-14T20:11:03.450Z,100615.31
2022-11-14T20:13:50.698Z,100606.44
2022-11-14T20:16:38.767Z,100621.72
2022-11-14T20:19:25.039Z,100613.88
2022-11-14T20:22:11.730Z,100616.41
2022-11-14T20:24:57.858Z,100610.78
2022-11-14T20:27:44.115Z,100621.47
2022-11-14T20:30:30.230Z,100611.75
2022-11-14T20:33:16.959Z,100610.16
2022-11-14T20:36:10.839Z,100609.53
2022-11-14T20:38:59.787Z,100607.06
2022-11-14T20:41:45.790Z,100600.00
2022-11-14T20:44:32.013Z,100600.00
2022-11-14T20:47:18.489Z,100603.03
2022-11-14T20:50:05.903Z,100607.53
2022-11-14T20:52:51.932Z,100596.66
2022-11-14T20:55:38.461Z,100594.06
2022-11-14T20:58:24.490Z,100591.81
2022-11-14T21:01:11.465Z,100589.47
2022-11-14T21:03:58.629Z,100596.19
2022-11-14T21:06:46.116Z,100584.47
2022-11-14T21:09:32.838Z,100591.63
2022-11-14T21:12:19.545Z,100582.44
2022-11-14T21:15:07.504Z,100589.41
2022-11-14T21:17:54.567Z,100587.81
2022-11-14T21:20:40.427Z,100582.78
2022-11-14T21:23:26.813Z,100576.06
2022-11-14T21:26:19.076Z,100581.56
2022-11-14T21:29:12.137Z,100574.44
2022-11-14T21:32:01.709Z,100570.06
2022-11-14T21:34:53.103Z,100565.69
2022-11-14T21:37:38.927Z,100564.16
2022-11-14T21:40:27.808Z,100566.03
2022-11-14T21:43:15.750Z,100555.63
2022-11-14T21:46:05.948Z,100553.72
2022-11-14T21:48:52.856Z,100556.09
2022-11-14T21:51:39.375Z,100551.59
2022-11-14T21:54:27.743Z,100545.31
2022-11-14T21:57:15.983Z,100552.81
2022-11-14T22:00:02.736Z,100541.25
2022-11-14T22:06:32.033Z,100542.16
2022-11-14T22:10:28.383Z,100542.16
2022-11-14T22:13:49.466Z,100538.66
2022-11-14T22:17:38.174Z,100537.66
2022-11-14T22:25:37.436Z,100534.75
2022-11-14T22:28:54.861Z,100545.28
2022-11-14T22:31:58.269Z,100528.72
2022-11-14T22:35:11.150Z,100540.47
2022-11-14T22:39:16.615Z,100540.88
2022-11-14T22:43:35.927Z,100546.34
2022-11-14T22:46:35.110Z,100534.94
2022-11-14T22:49:21.514Z,100546.50
2022-11-14T22:52:07.683Z,100547.06
2022-11-14T22:54:57.142Z,100535.19
2022-11-14T22:57:57.109Z,100542.72
2022-11-14T23:01:05.720Z,100536.34
2022-11-14T23:04:07.026Z,100538.50
2022-11-14T23:06:59.775Z,100538.16
2022-11-14T23:10:38.359Z,100526.28
2022-11-14T23:14:19.622Z,100523.94
2022-11-14T23:17:12.632Z,100526.06
2022-11-14T23:20:28.680Z,100519.81
2022-11-14T23:23:15.943Z,100511.84
2022-11-14T23:26:37.926Z,100520.44
2022-11-14T23:29:24.789Z,100522.47
2022-11-14T23:32:10.937Z,100518.44
2022-11-14T23:34:58.061Z,100512.94
2022-11-14T23:38:09.262Z,100501.28
2022-11-14T23:41:09.824Z,100508.56
2022-11-14T23:44:07.956Z,100511.91
2022-11-14T23:47:54.979Z,100523.25
2022-11-14T23:50:42.224Z,100506.69
2022-11-14T23:53:35.256Z,100511.72
2022-11-14T23:56:26.716Z,100514.31
2022-11-14T23:59:17.204Z,100521.34
